Time;durP1;ratioP1;P1;durP2;ratioP2;P2;SDS_P1;SDS_P2;PMS_P1;PMS_P2;Temp;Humidity;BMP_temperature;BMP_pressure;BME280_temperature;BME280_humidity;BME280_pressure;Samples;Min_cycle;Max_cycle;Signal;HPM_P1;HPM_P2
2021/09/21 00:02:35;;;;;;;9.20;5.40;;;12.70;46.30;;;;;;6166106;23;20421;-84
2021/09/21 00:05:46;;;;;;;;;;;;;;;;;;;;;
2021/09/21 00:12:17;;;;;;;6.17;3.50;;;12.70;47.40;;;;;;6147772;23;20420;-86
2021/09/21 00:15:11;;;;;;;8.37;4.60;;;12.70;47.10;;;;;;6123092;23;20432;-86
2021/09/21 00:18:07;;;;;;;8.17;4.50;;;12.70;47.90;;;;;;6154613;23;20446;-86
2021/09/21 00:34:28;;;;;;;6.80;4.67;;;12.70;49.10;;;;;;6047197;23;20424;-86
2021/09/21 00:44:02;;;;;;;9.00;4.87;;;12.60;51.90;;;;;;5974129;23;20429;-86
2021/09/21 00:53:49;;;;;;;6.63;4.00;;;12.50;52.00;;;;;;5712682;24;21066;-86
2021/09/21 01:15:03;;;;;;;10.43;5.23;;;12.50;52.10;;;;;;6178357;23;20453;-87
2021/09/21 01:40:32;;;;;;;8.60;4.73;;;12.50;51.80;;;;;;6084673;23;20615;31
2021/09/21 02:19:24;;;;;;;8.43;5.37;;;12.30;56.70;;;;;;6163979;23;20436;-86
2021/09/21 02:22:31;;;;;;;9.53;5.23;;;12.30;56.40;;;;;;6195288;23;20736;-85
2021/09/21 02:30:46;;;;;;;8.47;5.40;;;12.20;60.90;;;;;;6153766;23;20449;-84
2021/09/21 02:33:43;;;;;;;9.07;5.97;;;12.10;62.10;;;;;;6166987;23;20175;-86
2021/09/21 02:39:29;;;;;;;7.23;5.37;;;12.10;64.50;;;;;;6145384;23;20953;-85
2021/09/21 02:42:38;;;;;;;7.20;5.10;;;12.10;62.90;;;;;;6195646;23;20750;-86
2021/09/21 02:55:18;;;;;;;7.70;5.17;;;12.10;58.70;;;;;;6171661;23;20604;-85
2021/09/21 03:12:41;;;;;;;;;;;;;;;;;;;;;
2021/09/21 03:19:25;;;;;;;;;;;;;;;;;;;;;
2021/09/21 03:25:32;;;;;;;9.50;6.57;;;11.90;62.60;;;;;;6133951;23;20458;-86
2021/09/21 03:28:32;;;;;;;8.73;5.90;;;11.90;61.20;;;;;;6133002;23;20410;-87
2021/09/21 03:31:53;;;;;;;;;;;;;;;;;;;;;
2021/09/21 03:37:36;;;;;;;11.80;5.27;;;11.80;62.70;;;;;;6125735;23;20417;-87
2021/09/21 03:43:04;;;;;;;9.73;6.53;;;11.60;64.50;;;;;;6181280;23;20405;-87
2021/09/21 03:48:38;;;;;;;9.70;6.47;;;11.40;69.60;;;;;;6184559;23;20404;-87
2021/09/21 03:51:41;;;;;;;8.87;7.03;;;11.20;72.50;;;;;;6195990;23;20807;-86
2021/09/21 03:54:39;;;;;;;10.33;7.83;;;11.30;75.00;;;;;;6178944;23;20528;-84
2021/09/21 03:57:36;;;;;;;10.70;8.03;;;11.30;77.20;;;;;;6194387;23;20419;-86
2021/09/21 04:03:30;;;;;;;10.80;8.00;;;11.30;75.60;;;;;;6145458;23;20496;-87
2021/09/21 04:06:20;;;;;;;8.43;7.03;;;11.50;71.20;;;;;;6196183;23;20404;-87
2021/09/21 04:46:44;;;;;;;9.00;6.30;;;11.60;65.40;;;;;;6083484;23;20811;-86
2021/09/21 04:49:48;;;;;;;9.30;5.50;;;11.70;65.50;;;;;;6077855;23;20422;-87
2021/09/21 04:52:42;;;;;;;9.30;6.40;;;11.60;65.50;;;;;;6119675;23;20467;-87
2021/09/21 04:58:44;;;;;;;9.60;5.73;;;11.50;66.30;;;;;;6133084;23;20465;-87
2021/09/21 05:01:52;;;;;;;9.93;6.27;;;11.60;66.40;;;;;;6135871;23;20414;-87
2021/09/21 05:13:51;;;;;;;11.87;6.80;;;11.40;67.30;;;;;;6126268;23;20415;-87
2021/09/21 05:16:26;;;;;;;7.07;5.97;;;11.30;67.50;;;;;;6136142;23;20909;-87
2021/09/21 05:19:43;;;;;;;13.90;7.37;;;11.30;69.80;;;;;;6135705;23;20453;-87
2021/09/21 05:25:46;;;;;;;;;;;;;;;;;;;;;
2021/09/21 05:32:43;;;;;;;11.30;7.20;;;11.00;72.80;;;;;;5896442;24;20417;-86
2021/09/21 05:39:05;;;;;;;12.63;7.53;;;11.10;73.50;;;;;;6016736;23;20437;-85
2021/09/21 05:45:27;;;;;;;13.90;9.17;;;11.10;75.20;;;;;;6081860;23;20414;-87
2021/09/21 05:52:30;;;;;;;14.47;8.73;;;11.10;78.00;;;;;;6026414;23;20483;-84
2021/09/21 06:02:24;;;;;;;8.90;7.57;;;10.90;77.50;;;;;;5776951;24;20421;-85
2021/09/21 06:15:46;;;;;;;15.67;10.90;;;10.70;85.40;;;;;;5930303;23;20431;-85
2021/09/21 08:57:52;;;;;;;6.07;3.60;;;19.10;11.60;;;;;;5755636;24;20439;-79
2021/09/21 09:00:24;;;;;;;5.90;3.20;;;19.50;11.80;;;;;;5965477;23;21045;-79
2021/09/21 09:02:51;;;;;;;9.90;3.40;;;20.10;8.90;;;;;;6154728;23;20420;-77
2021/09/21 09:05:18;;;;;;;7.00;2.70;;;20.20;12.40;;;;;;6215720;23;20405;-77
2021/09/21 09:07:53;;;;;;;5.33;2.90;;;20.50;4.90;;;;;;6215763;23;20720;-78
2021/09/21 09:10:21;;;;;;;6.37;2.87;;;20.50;3.70;;;;;;6215771;23;20436;-78
2021/09/21 09:52:14;;;;;;;5.90;2.37;;;21.70;1.00;;;;;;5935430;24;20422;-87
2021/09/21 10:01:14;;;;;;;4.87;2.23;;;21.50;1.00;;;;;;5981285;23;20414;-81
2021/09/21 10:03:42;;;;;;;5.73;2.40;;;21.40;1.00;;;;;;6138283;23;20477;-81
2021/09/21 10:06:09;;;;;;;4.80;1.73;;;22.00;1.00;;;;;;6216981;23;20883;-82
2021/09/21 10:08:36;;;;;;;4.67;1.80;;;22.40;1.00;;;;;;6217249;23;20479;-80
2021/09/21 10:11:03;;;;;;;5.33;2.00;;;22.50;1.00;;;;;;6217092;23;20503;-81
2021/09/21 10:13:30;;;;;;;6.13;2.10;;;22.60;1.00;;;;;;6215854;23;20486;-82
2021/09/21 10:15:58;;;;;;;5.10;2.00;;;22.70;1.00;;;;;;6216929;23;20458;-81
2021/09/21 10:18:26;;;;;;;6.50;2.17;;;22.90;1.00;;;;;;6217093;23;20478;-81
2021/09/21 10:20:59;;;;;;;4.57;1.93;;;21.80;1.00;;;;;;6217122;23;20435;-81
2021/09/21 10:23:32;;;;;;;4.10;1.70;;;22.80;1.00;;;;;;6217318;23;20407;-81
2021/09/21 10:26:55;;;;;;;;;;;;;;;;;;;;;
2021/09/21 10:42:13;;;;;;;4.87;2.27;;;24.10;1.00;;;;;;6213835;23;20411;-85
2021/09/21 10:45:01;;;;;;;5.90;2.53;;;24.40;1.00;;;;;;6218155;23;20408;-93
2021/09/21 10:47:58;;;;;;;5.13;2.10;;;24.20;1.00;;;;;;6225944;23;20486;-89
2021/09/21 10:50:38;;;;;;;5.03;2.50;;;25.10;1.00;;;;;;6197980;23;20416;-89
2021/09/21 10:53:08;;;;;;;5.20;2.57;;;25.30;1.00;;;;;;6199821;23;20449;-90
2021/09/21 10:55:54;;;;;;;;;;;;;;;;;;;;;
2021/09/21 10:59:03;;;;;;;5.30;2.30;;;24.90;1.00;;;;;;6200237;23;20738;-89
2021/09/21 11:01:56;;;;;;;6.40;2.60;;;24.60;1.00;;;;;;6205201;23;21000;-89
2021/09/21 11:04:38;;;;;;;6.30;2.50;;;24.30;1.00;;;;;;6198108;23;20818;-91
2021/09/21 11:07:19;;;;;;;6.17;2.80;;;23.90;1.00;;;;;;6192324;23;20793;-92
2021/09/21 11:12:48;;;;;;;5.03;2.33;;;24.20;1.00;;;;;;6185715;23;20419;-87
2021/09/21 11:15:32;;;;;;;7.47;2.10;;;23.90;1.00;;;;;;6199518;23;20471;-89
2021/09/21 11:18:06;;;;;;;6.17;2.20;;;23.20;1.00;;;;;;6189457;23;20451;-87
2021/09/21 11:20:45;;;;;;;5.70;2.17;;;23.60;1.00;;;;;;6199599;23;20463;-88
2021/09/21 11:23:26;;;;;;;4.30;1.90;;;23.40;1.00;;;;;;6203733;23;20711;-91
2021/09/21 11:26:05;;;;;;;5.47;2.20;;;23.80;1.00;;;;;;6201159;23;20738;-91
2021/09/21 11:28:40;;;;;;;4.90;2.30;;;24.40;1.00;;;;;;6198370;23;20409;-91
2021/09/21 11:31:24;;;;;;;5.40;2.70;;;24.60;1.00;;;;;;6204868;23;20892;-89
2021/09/21 11:36:49;;;;;;;8.63;2.80;;;25.20;1.00;;;;;;6187500;23;20412;-89
2021/09/21 11:39:22;;;;;;;7.83;1.93;;;25.00;1.00;;;;;;6207226;23;20436;-89
2021/09/21 11:42:00;;;;;;;6.63;2.50;;;24.80;1.00;;;;;;6197943;23;20416;-89
2021/09/21 11:44:52;;;;;;;4.30;1.93;;;26.10;1.00;;;;;;6207261;23;20436;-90
2021/09/21 11:48:05;;;;;;;5.27;2.30;;;26.10;1.00;;;;;;6206151;23;20431;-91
2021/09/21 11:50:51;;;;;;;5.00;1.70;;;26.20;1.00;;;;;;6203983;23;20413;-88
2021/09/21 11:53:29;;;;;;;4.50;1.97;;;25.90;1.00;;;;;;6202928;23;20416;-91
2021/09/21 11:56:02;;;;;;;4.70;2.03;;;26.20;1.00;;;;;;6202109;23;20421;-90
2021/09/21 12:01:39;;;;;;;7.67;2.57;;;26.60;1.00;;;;;;6195146;23;20413;-90
2021/09/21 12:07:45;;;;;;;6.90;2.57;;;26.70;1.00;;;;;;6137945;23;20397;-89
2021/09/21 12:10:16;;;;;;;6.60;3.13;;;25.50;1.00;;;;;;6148446;23;20438;-91
2021/09/21 12:13:02;;;;;;;4.50;2.20;;;25.50;1.00;;;;;;6145591;23;20394;-91
2021/09/21 12:15:37;;;;;;;5.70;2.33;;;25.30;1.00;;;;;;6153069;23;20416;-90
2021/09/21 12:18:13;;;;;;;4.60;2.27;;;24.90;1.00;;;;;;6203809;23;20419;-88
2021/09/21 12:20:44;;;;;;;5.40;2.30;;;25.40;1.00;;;;;;6200022;23;20418;-90
2021/09/21 12:23:32;;;;;;;8.00;2.23;;;25.00;1.00;;;;;;6190530;23;20884;-91
2021/09/21 12:26:01;;;;;;;4.63;2.30;;;25.00;1.00;;;;;;6190099;23;20436;-89
2021/09/21 12:28:35;;;;;;;5.37;2.30;;;24.80;1.00;;;;;;6197725;23;20416;-90
2021/09/21 12:31:10;;;;;;;5.17;2.20;;;24.90;1.00;;;;;;6198257;23;20447;-91
2021/09/21 12:33:38;;;;;;;5.40;1.97;;;25.10;1.00;;;;;;6204781;23;20397;-91
2021/09/21 12:36:07;;;;;;;5.47;2.13;;;25.50;1.00;;;;;;6207548;23;20400;-93
2021/09/21 12:39:12;;;;;;;5.90;2.50;;;25.20;1.00;;;;;;6201998;23;20412;-90
2021/09/21 12:41:47;;;;;;;4.90;2.17;;;24.70;1.00;;;;;;6200866;23;20967;-92
2021/09/21 12:44:24;;;;;;;4.43;1.80;;;25.10;1.00;;;;;;6200102;23;20412;-91
2021/09/21 12:46:56;;;;;;;5.77;2.20;;;24.80;1.00;;;;;;6198724;23;20404;-93
2021/09/21 12:49:31;;;;;;;6.13;2.37;;;24.70;1.00;;;;;;6202463;23;20416;-86
2021/09/21 12:52:00;;;;;;;6.77;1.80;;;23.30;1.00;;;;;;6187949;23;20408;-92
2021/09/21 12:54:29;;;;;;;5.00;2.47;;;24.50;1.00;;;;;;6190402;23;20436;-90
2021/09/21 12:57:21;;;;;;;5.80;2.70;;;25.30;1.00;;;;;;6193235;23;20439;-85
2021/09/21 12:59:56;;;;;;;5.87;2.00;;;25.20;1.00;;;;;;6195395;23;20436;-86
2021/09/21 13:02:29;;;;;;;5.17;2.10;;;24.20;1.00;;;;;;6195066;23;20427;-88
2021/09/21 13:04:56;;;;;;;4.90;2.23;;;23.30;1.00;;;;;;6195460;23;20416;-85
2021/09/21 13:07:30;;;;;;;5.87;2.57;;;23.20;1.00;;;;;;6185292;23;20989;-88
2021/09/21 13:10:00;;;;;;;5.63;2.27;;;23.30;1.00;;;;;;6185134;23;20432;-87
2021/09/21 13:12:27;;;;;;;5.13;2.43;;;23.40;1.00;;;;;;6193550;23;20405;-88
2021/09/21 13:15:00;;;;;;;5.93;2.40;;;23.00;1.00;;;;;;6195193;23;20413;-87
2021/09/21 13:17:30;;;;;;;8.83;2.60;;;22.50;1.00;;;;;;6185587;23;20895;-87
2021/09/21 13:20:07;;;;;;;5.00;2.37;;;22.50;1.00;;;;;;6185022;23;20405;-85
2021/09/21 13:30:21;;;;;;;7.43;3.00;;;22.70;1.00;;;;;;5869108;24;20431;-86
2021/09/21 13:33:07;;;;;;;17.73;2.60;;;22.00;1.00;;;;;;5936118;24;20427;-84
2021/09/21 14:59:06;;;;;;;6.97;2.30;;;22.60;1.00;;;;;;5838363;24;20409;-81
2021/09/21 15:01:34;;;;;;;7.17;2.13;;;22.10;1.00;;;;;;6079743;23;20287;-80
2021/09/21 15:04:01;;;;;;;7.53;2.47;;;21.90;1.00;;;;;;6157005;23;20911;-80
2021/09/21 15:06:28;;;;;;;5.83;1.83;;;21.80;1.00;;;;;;6157038;23;20491;-80
2021/09/21 15:08:55;;;;;;;5.13;1.90;;;21.90;1.00;;;;;;6157082;23;20402;-80
2021/09/21 15:11:25;;;;;;;4.23;1.60;;;21.50;1.00;;;;;;6156762;23;20474;-81
2021/09/21 15:13:52;;;;;;;6.17;1.60;;;21.70;1.00;;;;;;6156300;23;20425;-80
2021/09/21 15:16:34;;;;;;;7.70;2.30;;;21.50;1.00;;;;;;6156901;23;20436;-81
2021/09/21 15:26:31;;;;;;;8.27;2.50;;;21.50;1.00;;;;;;5994699;23;20921;-83
2021/09/21 15:29:00;;;;;;;4.90;1.60;;;21.90;1.00;;;;;;6036986;23;20267;-84
2021/09/21 15:31:28;;;;;;;4.77;1.73;;;21.80;1.00;;;;;;6046959;23;20501;-83
2021/09/21 15:34:05;;;;;;;3.80;1.50;;;21.80;1.00;;;;;;6168191;23;20482;-86
2021/09/21 15:36:35;;;;;;;4.03;1.50;;;21.80;1.00;;;;;;6197512;23;20417;-87
2021/09/21 15:39:09;;;;;;;4.90;1.60;;;22.00;1.00;;;;;;6185977;23;20493;-88
2021/09/21 15:41:38;;;;;;;4.07;1.87;;;22.50;1.00;;;;;;6195110;23;20752;-87
2021/09/21 15:44:05;;;;;;;6.20;1.73;;;22.10;1.00;;;;;;6186287;23;20408;-87
2021/09/21 15:46:39;;;;;;;4.93;1.70;;;21.80;1.00;;;;;;6196293;23;20426;-89
2021/09/21 15:52:46;;;;;;;;;;;;;;;;;;;;;
2021/09/21 15:58:33;;;;;;;5.47;1.87;;;19.80;1.00;;;;;;6181515;23;20474;-87
2021/09/21 16:01:02;;;;;;;7.43;2.10;;;19.60;1.00;;;;;;6184223;23;20443;-88
2021/09/21 16:03:35;;;;;;;4.57;2.10;;;19.30;1.00;;;;;;6194874;23;20411;-89
2021/09/21 16:06:16;;;;;;;5.13;1.93;;;19.20;1.00;;;;;;6184055;23;20468;-85
2021/09/21 16:08:46;;;;;;;5.83;1.83;;;19.00;1.00;;;;;;6194543;23;20426;-86
2021/09/21 16:11:23;;;;;;;6.83;2.33;;;18.70;1.00;;;;;;6194124;23;20524;-85
2021/09/21 16:13:55;;;;;;;5.50;2.53;;;18.60;1.00;;;;;;6183338;23;20409;-83
2021/09/21 16:16:29;;;;;;;4.20;1.90;;;18.60;1.00;;;;;;6194159;23;20464;-83
2021/09/21 16:18:58;;;;;;;4.40;1.77;;;18.70;1.50;;;;;;6184520;23;20503;-77
2021/09/21 16:21:25;;;;;;;4.90;1.90;;;18.50;3.10;;;;;;6184495;23;20472;-88
2021/09/21 16:23:55;;;;;;;5.70;2.30;;;18.40;3.40;;;;;;6195145;23;20416;-85
2021/09/21 16:26:23;;;;;;;4.27;1.90;;;18.20;7.10;;;;;;6195848;23;20408;-84
2021/09/21 16:28:50;;;;;;;5.10;2.40;;;18.00;7.00;;;;;;6184742;23;20721;-85
2021/09/21 16:31:23;;;;;;;4.57;1.97;;;17.90;7.30;;;;;;6185500;23;20470;-83
2021/09/21 16:33:54;;;;;;;7.10;2.60;;;17.70;6.90;;;;;;6195503;23;20445;-84
2021/09/21 16:36:26;;;;;;;4.80;2.00;;;17.50;7.20;;;;;;6185761;23;20411;-84
2021/09/21 16:38:54;;;;;;;5.57;2.10;;;17.40;6.50;;;;;;6195730;23;20415;-85
2021/09/21 16:41:22;;;;;;;5.23;2.20;;;17.40;7.90;;;;;;6185035;23;20411;-86
2021/09/21 16:43:53;;;;;;;5.77;2.27;;;17.30;10.10;;;;;;6184254;23;20444;-82
2021/09/21 16:46:23;;;;;;;6.30;2.10;;;17.00;8.90;;;;;;6195554;23;20818;-84
2021/09/21 16:48:52;;;;;;;6.63;1.80;;;17.00;10.00;;;;;;6185804;23;20452;-85
2021/09/21 16:51:25;;;;;;;8.13;2.23;;;16.80;10.80;;;;;;6185677;23;20432;-83
2021/09/21 16:53:58;;;;;;;4.60;2.07;;;16.60;11.40;;;;;;6195697;23;20417;-87
2021/09/21 16:56:28;;;;;;;6.50;2.50;;;16.40;12.20;;;;;;6195629;23;20424;-86
2021/09/21 16:59:08;;;;;;;6.23;2.67;;;16.40;12.80;;;;;;6183184;23;20819;-86
2021/09/21 17:01:41;;;;;;;5.93;2.33;;;16.10;14.70;;;;;;6185642;23;20452;-85
2021/09/21 17:04:11;;;;;;;4.70;2.30;;;16.00;16.80;;;;;;6185684;23;20404;-87
2021/09/21 17:06:49;;;;;;;7.23;2.20;;;15.70;18.40;;;;;;6185689;23;20403;-88
2021/09/21 17:09:20;;;;;;;5.20;2.23;;;15.60;19.60;;;;;;6195530;23;20485;-88
2021/09/21 17:11:58;;;;;;;5.80;2.00;;;15.30;20.80;;;;;;6183952;23;20491;-88
2021/09/21 17:14:28;;;;;;;6.37;2.43;;;15.10;21.30;;;;;;6118665;23;20417;-89
2021/09/21 17:17:05;;;;;;;;;;;;;;;;;;;;;
2021/09/21 17:19:38;;;;;;;5.10;2.30;;;14.80;26.30;;;;;;6195276;23;20785;-87
2021/09/21 17:22:10;;;;;;;7.03;2.20;;;14.50;26.40;;;;;;6195038;23;20424;-88
2021/09/21 17:24:50;;;;;;;6.30;2.80;;;14.40;28.90;;;;;;6195374;23;20409;-84
2021/09/21 17:27:26;;;;;;;6.70;3.40;;;14.20;36.80;;;;;;6183841;23;20897;-87
2021/09/21 17:30:01;;;;;;;5.30;3.00;;;14.00;41.70;;;;;;6195565;23;20488;-87
2021/09/21 17:32:28;;;;;;;5.10;2.53;;;13.70;42.90;;;;;;6185380;23;20441;-88
2021/09/21 17:34:56;;;;;;;5.47;2.57;;;13.70;44.80;;;;;;6195369;23;20827;-86
2021/09/21 17:37:23;;;;;;;9.10;2.70;;;13.50;48.00;;;;;;6195258;23;20464;-87
2021/09/21 17:40:14;;;;;;;7.00;2.60;;;13.40;52.00;;;;;;6195089;23;20417;-88
2021/09/21 17:42:46;;;;;;;5.83;2.70;;;13.30;50.90;;;;;;6122391;23;20436;-86
2021/09/21 17:45:30;;;;;;;;;;;;;;;;;;;;;
2021/09/21 17:48:02;;;;;;;6.43;3.37;;;13.00;50.70;;;;;;6121270;23;20419;-88
2021/09/21 17:50:30;;;;;;;6.43;2.70;;;12.80;50.80;;;;;;6194949;23;20980;-88
2021/09/21 17:53:23;;;;;;;6.70;3.20;;;12.80;51.20;;;;;;6196078;23;20450;-84
2021/09/21 17:56:27;;;;;;;6.50;3.10;;;12.70;51.10;;;;;;6185144;23;20441;-88
2021/09/21 17:59:01;;;;;;;6.27;3.10;;;12.60;54.70;;;;;;6185943;23;20491;-87
2021/09/21 18:01:48;;;;;;;6.10;3.80;;;12.50;54.10;;;;;;6187144;23;20429;-88
2021/09/21 18:04:15;;;;;;;6.00;3.20;;;12.40;54.80;;;;;;6197386;23;20459;-89
2021/09/21 18:06:52;;;;;;;7.40;3.17;;;12.20;57.50;;;;;;6196868;23;20432;-89
2021/09/21 18:09:31;;;;;;;7.33;3.50;;;12.30;58.90;;;;;;6197441;23;20476;-89
2021/09/21 18:12:06;;;;;;;8.07;3.17;;;12.20;60.70;;;;;;6195830;23;20432;-88
2021/09/21 18:14:33;;;;;;;7.20;3.43;;;12.20;61.30;;;;;;6196638;23;20495;-87
2021/09/21 18:17:40;;;;;;;7.67;3.97;;;12.20;63.00;;;;;;6187163;23;20440;-88
2021/09/21 18:20:43;;;;;;;6.43;3.63;;;12.00;62.80;;;;;;6186666;23;20404;-88
2021/09/21 18:23:21;;;;;;;8.27;4.07;;;11.90;65.00;;;;;;6187185;23;20441;-88
2021/09/21 18:25:55;;;;;;;7.57;4.77;;;11.80;65.80;;;;;;6186573;23;20401;-88
2021/09/21 18:28:24;;;;;;;8.90;4.87;;;11.80;66.40;;;;;;6185774;23;20479;-89
2021/09/21 18:30:52;;;;;;;8.30;4.33;;;11.90;66.70;;;;;;6194116;23;20885;-85
2021/09/21 18:33:22;;;;;;;8.10;4.60;;;11.90;65.80;;;;;;6195287;23;20499;-88
2021/09/21 18:35:57;;;;;;;9.40;5.27;;;12.00;65.70;;;;;;6185348;23;20695;-87
2021/09/21 18:38:28;;;;;;;8.87;5.37;;;11.90;65.50;;;;;;6195556;23;20445;-87
2021/09/21 18:40:57;;;;;;;8.20;4.53;;;11.90;65.90;;;;;;6186147;23;20432;-89
2021/09/21 18:43:29;;;;;;;8.73;5.03;;;11.80;66.80;;;;;;6194413;23;20736;-86
2021/09/21 18:45:57;;;;;;;8.30;4.37;;;11.80;68.30;;;;;;6184910;23;20460;-84
2021/09/21 18:48:38;;;;;;;6.73;4.80;;;11.60;67.80;;;;;;6186059;23;20473;-86
2021/09/21 18:51:05;;;;;;;11.53;5.27;;;11.50;67.70;;;;;;6196330;23;20927;-87
2021/09/21 18:53:32;;;;;;;7.77;5.50;;;11.40;69.80;;;;;;6186532;23;20940;-88
2021/09/21 18:56:00;;;;;;;10.00;5.60;;;11.40;70.70;;;;;;6186767;23;20408;-87
2021/09/21 18:58:31;;;;;;;11.13;5.30;;;11.40;70.40;;;;;;6194992;23;20906;-88
2021/09/21 19:00:59;;;;;;;12.20;6.00;;;11.30;72.70;;;;;;6186775;23;20441;-86
2021/09/21 19:03:29;;;;;;;10.13;6.40;;;11.20;74.50;;;;;;6196027;23;20421;-88
2021/09/21 19:08:39;;;;;;;11.80;6.30;;;11.20;78.00;;;;;;6185039;23;20427;-88
2021/09/21 19:11:08;;;;;;;11.20;7.53;;;11.20;79.90;;;;;;6196098;23;20420;-88
2021/09/21 19:13:37;;;;;;;8.83;7.90;;;11.10;80.80;;;;;;6118812;23;20416;-88
2021/09/21 19:16:08;;;;;;;9.77;7.50;;;11.00;83.40;;;;;;6196442;23;20464;-87
2021/09/21 19:18:35;;;;;;;11.60;8.60;;;11.10;85.70;;;;;;6186564;23;20406;-87
2021/09/21 19:21:03;;;;;;;10.80;9.63;;;10.90;85.50;;;;;;6186480;23;20476;-88
2021/09/21 19:23:37;;;;;;;12.03;10.50;;;10.80;89.40;;;;;;6196656;23;20409;-87
2021/09/21 19:26:05;;;;;;;12.10;9.20;;;10.80;90.40;;;;;;6186617;23;20404;-88
2021/09/21 19:28:36;;;;;;;11.03;9.20;;;10.70;91.20;;;;;;6185354;23;20425;-88
2021/09/21 19:31:08;;;;;;;10.37;9.00;;;10.70;91.20;;;;;;6186484;23;20475;-88
2021/09/21 19:33:37;;;;;;;11.73;10.30;;;10.60;92.90;;;;;;6196091;23;20440;-88
2021/09/21 19:36:07;;;;;;;12.00;9.90;;;10.60;93.20;;;;;;6196077;23;20932;-87
2021/09/21 19:38:35;;;;;;;12.60;11.33;;;10.40;93.30;;;;;;6186499;23;20413;-88
2021/09/21 19:41:02;;;;;;;17.77;16.17;;;10.50;97.30;;;;;;6196338;23;20424;-87
2021/09/21 19:43:36;;;;;;;19.13;17.57;;;10.50;99.10;;;;;;6185152;23;20432;-86
2021/09/21 19:46:12;;;;;;;15.80;14.13;;;10.50;99.90;;;;;;6196249;23;20475;-87
2021/09/21 19:48:43;;;;;;;17.30;13.63;;;10.50;97.80;;;;;;6196470;23;20409;-87
2021/09/21 19:51:12;;;;;;;18.07;16.40;;;10.50;98.70;;;;;;6196318;23;20413;-87
2021/09/21 19:53:44;;;;;;;22.03;20.47;;;10.40;99.90;;;;;;6195943;23;20914;-88
2021/09/21 19:56:16;;;;;;;24.43;21.47;;;10.50;99.90;;;;;;6195896;23;20394;-86
2021/09/21 19:58:55;;;;;;;20.53;18.93;;;10.50;99.90;;;;;;6194868;23;20790;-86
2021/09/21 20:01:26;;;;;;;15.93;14.33;;;10.40;99.90;;;;;;6195978;23;20428;-86
2021/09/21 20:03:55;;;;;;;18.83;16.97;;;10.40;99.90;;;;;;6186276;23;20409;-88
2021/09/21 20:06:22;;;;;;;25.80;23.90;;;10.40;99.90;;;;;;6186280;23;20705;-79
2021/09/21 20:08:53;;;;;;;17.93;16.63;;;10.40;99.90;;;;;;6185915;23;20433;-86
2021/09/21 20:11:23;;;;;;;18.57;16.77;;;10.30;99.90;;;;;;6195708;23;20485;-89
2021/09/21 20:13:58;;;;;;;19.13;17.63;;;10.20;99.90;;;;;;6185950;23;20405;-91
2021/09/21 20:16:33;;;;;;;21.63;19.73;;;10.20;99.90;;;;;;6185979;23;20456;-88
2021/09/21 20:19:04;;;;;;;28.60;26.60;;;10.30;99.90;;;;;;6185323;23;20905;-87
2021/09/21 20:21:44;;;;;;;30.27;28.43;;;10.30;99.90;;;;;;6195330;23;20487;-86
2021/09/21 20:24:11;;;;;;;26.73;24.63;;;10.30;99.90;;;;;;6185913;23;20412;-86
2021/09/21 20:26:38;;;;;;;31.63;29.20;;;10.40;99.90;;;;;;6194652;23;20424;-85
2021/09/21 20:29:16;;;;;;;31.37;29.37;;;10.40;99.90;;;;;;6195617;23;20436;-81
2021/09/21 20:31:48;;;;;;;29.37;27.07;;;10.40;99.90;;;;;;6195550;23;20732;-86
2021/09/21 20:34:28;;;;;;;33.73;31.30;;;10.40;99.90;;;;;;6195543;23;20460;-86
2021/09/21 20:38:09;;;;;;;32.87;30.83;;;10.50;99.90;;;;;;6195662;23;20420;-86
2021/09/21 20:39:49;;;;;;;23.23;21.70;;;10.40;99.90;;;;;;6185363;23;20748;-87
2021/09/21 20:42:24;;;;;;;23.07;21.20;;;10.30;99.90;;;;;;6184424;23;20507;-87
2021/09/21 20:44:58;;;;;;;21.57;19.90;;;10.20;99.90;;;;;;6185363;23;20405;-87
2021/09/21 20:47:33;;;;;;;21.57;19.73;;;10.10;99.90;;;;;;6195718;23;20471;-87
2021/09/21 20:50:19;;;;;;;24.90;23.20;;;10.00;99.90;;;;;;6185848;23;20714;-87
2021/09/21 20:52:49;;;;;;;23.23;21.20;;;10.00;99.90;;;;;;6195579;23;20411;-88
2021/09/21 20:55:40;;;;;;;30.77;28.60;;;10.00;99.90;;;;;;6195356;23;20492;-87
2021/09/21 20:58:12;;;;;;;31.07;28.93;;;9.90;99.90;;;;;;6193934;23;20780;-87
2021/09/21 21:01:00;;;;;;;;;;;;;;;;;;;;;
2021/09/21 21:03:42;;;;;;;32.70;30.20;;;9.90;99.90;;;;;;6195625;23;20793;-87
2021/09/21 21:06:33;;;;;;;34.07;31.47;;;9.90;99.90;;;;;;6195456;23;20417;-86
2021/09/21 21:09:14;;;;;;;37.00;34.80;;;9.90;99.90;;;;;;6188760;23;20931;-87
2021/09/21 21:18:31;;;;;;;39.50;36.83;;;9.80;99.90;;;;;;6115582;23;20417;-87
2021/09/21 21:21:04;;;;;;;44.33;40.60;;;9.90;99.90;;;;;;6179626;23;20409;-86
2021/09/21 21:23:41;;;;;;;52.30;49.60;;;9.80;99.90;;;;;;6195028;23;20451;-86
2021/09/21 21:29:19;;;;;;;64.10;60.67;;;9.70;99.90;;;;;;6193866;23;20412;-87
2021/09/21 21:31:50;;;;;;;61.27;57.43;;;9.60;99.90;;;;;;6179804;23;20481;-86
2021/09/21 21:34:33;;;;;;;58.17;54.97;;;9.50;99.90;;;;;;6194885;23;20436;-87
2021/09/21 21:37:02;;;;;;;53.50;50.50;;;9.60;99.90;;;;;;6195393;23;20436;-87
2021/09/21 21:39:37;;;;;;;46.73;43.97;;;9.50;99.90;;;;;;6195562;23;20707;-87
2021/09/21 21:42:07;;;;;;;54.20;50.90;;;9.60;99.90;;;;;;6193963;23;20408;-87
2021/09/21 21:44:37;;;;;;;59.90;56.77;;;9.50;99.90;;;;;;6195463;23;20417;-88
2021/09/21 21:47:09;;;;;;;60.07;56.60;;;9.50;99.90;;;;;;6185408;23;20441;-85
2021/09/21 21:49:37;;;;;;;55.70;52.50;;;9.50;99.90;;;;;;6184775;23;20420;-87
2021/09/21 21:52:06;;;;;;;52.73;49.37;;;9.40;99.90;;;;;;6194982;23;20409;-87
2021/09/21 21:54:36;;;;;;;53.03;50.33;;;9.50;99.90;;;;;;6185152;23;20408;-86
2021/09/21 21:57:06;;;;;;;47.13;44.43;;;9.40;99.90;;;;;;6194098;23;20433;-85
2021/09/21 21:59:35;;;;;;;51.13;48.20;;;9.40;99.90;;;;;;6195172;23;20441;-85
2021/09/21 22:02:08;;;;;;;41.23;38.50;;;9.40;99.90;;;;;;6194811;23;20444;-86
2021/09/21 22:04:35;;;;;;;44.87;42.10;;;9.40;99.90;;;;;;6194860;23;20503;-87
2021/09/21 22:07:12;;;;;;;52.20;49.10;;;9.30;99.90;;;;;;6194873;23;20421;-85
2021/09/21 22:09:44;;;;;;;55.47;52.20;;;9.40;99.90;;;;;;6194852;23;20439;-86
2021/09/21 22:12:13;;;;;;;56.67;53.47;;;9.40;99.90;;;;;;6184101;23;20464;-86
2021/09/21 22:14:42;;;;;;;52.63;49.83;;;9.40;99.90;;;;;;6195387;23;20779;-86
2021/09/21 22:17:25;;;;;;;46.03;43.47;;;9.40;99.90;;;;;;6195309;23;20471;-87
2021/09/21 22:19:52;;;;;;;46.60;43.20;;;9.30;99.90;;;;;;6194820;23;20416;-87
2021/09/21 22:22:27;;;;;;;52.27;49.40;;;9.30;99.90;;;;;;6184703;23;20916;-86
2021/09/21 22:24:58;;;;;;;47.73;44.63;;;9.20;99.90;;;;;;6195238;23;20440;-86
2021/09/21 22:27:28;;;;;;;49.90;47.03;;;9.30;99.90;;;;;;6183732;23;20889;-86
2021/09/21 22:29:58;;;;;;;52.80;49.40;;;9.20;99.90;;;;;;6195190;23;20913;-87
2021/09/21 22:32:30;;;;;;;57.67;53.97;;;9.30;99.90;;;;;;6185338;23;20427;-87
2021/09/21 22:35:00;;;;;;;55.50;52.00;;;9.20;99.90;;;;;;6194694;23;20931;-86
2021/09/21 22:37:28;;;;;;;55.53;52.43;;;9.20;99.90;;;;;;6185274;23;20393;-87
2021/09/21 22:39:58;;;;;;;51.63;48.27;;;9.10;99.90;;;;;;6186252;23;20401;-86
2021/09/21 22:42:27;;;;;;;65.47;60.80;;;9.10;99.90;;;;;;6195697;23;20436;-86
2021/09/21 22:44:54;;;;;;;54.83;51.27;;;9.20;99.90;;;;;;6186986;23;20406;-87
2021/09/21 22:47:21;;;;;;;71.23;66.87;;;9.20;99.90;;;;;;6196859;23;20463;-87
2021/09/21 22:49:54;;;;;;;60.73;57.00;;;9.50;99.90;;;;;;6196470;23;20439;-87
2021/09/21 22:52:21;;;;;;;62.43;58.37;;;9.50;99.90;;;;;;6196508;23;20416;-87
2021/09/21 22:54:50;;;;;;;62.30;57.97;;;9.60;99.90;;;;;;6196422;23;20479;-85
2021/09/21 22:57:23;;;;;;;52.70;48.83;;;9.70;99.90;;;;;;6195205;23;20469;-88
2021/09/21 22:59:54;;;;;;;54.40;50.30;;;9.70;99.90;;;;;;6186562;23;20401;-85
2021/09/21 23:02:26;;;;;;;44.23;41.10;;;9.60;99.90;;;;;;6186811;23;20405;-88
2021/09/21 23:04:56;;;;;;;52.00;48.40;;;9.50;99.90;;;;;;6196392;23;20431;-86
2021/09/21 23:07:24;;;;;;;57.10;52.70;;;9.30;99.90;;;;;;6196791;23;20413;-87
2021/09/21 23:09:51;;;;;;;57.47;53.57;;;9.20;99.90;;;;;;6196686;23;20463;-87
2021/09/21 23:12:26;;;;;;;59.70;55.50;;;9.20;99.90;;;;;;6194944;23;20421;-86
2021/09/21 23:14:53;;;;;;;64.10;59.60;;;9.20;99.90;;;;;;6196243;23;20420;-87
2021/09/21 23:17:20;;;;;;;59.97;56.07;;;9.20;99.90;;;;;;6196404;23;20410;-87
2021/09/21 23:19:49;;;;;;;64.17;59.90;;;9.20;99.90;;;;;;6186704;23;20409;-86
2021/09/21 23:22:18;;;;;;;65.90;61.57;;;9.30;99.90;;;;;;6186146;23;20885;-87
2021/09/21 23:24:48;;;;;;;72.70;68.50;;;9.10;99.90;;;;;;6196628;23;20487;-87
2021/09/21 23:27:27;;;;;;;75.23;70.70;;;9.10;99.90;;;;;;6195085;23;21304;-87
2021/09/21 23:29:57;;;;;;;65.27;61.40;;;9.10;99.90;;;;;;6196522;23;20413;-87
2021/09/21 23:32:24;;;;;;;72.90;68.20;;;9.00;99.90;;;;;;6196424;23;20511;-87
2021/09/21 23:34:57;;;;;;;75.63;71.03;;;8.90;99.90;;;;;;6186069;23;20437;-87
2021/09/21 23:37:31;;;;;;;84.47;78.47;;;8.90;99.90;;;;;;6195872;23;20405;-87
2021/09/21 23:40:15;;;;;;;;;;;;;;;;;;;;;
2021/09/21 23:42:49;;;;;;;86.53;81.50;;;9.00;99.90;;;;;;6194860;23;20431;-86